Lilly, PA (15938)

11:01 PM EDT del 28 Agosto 2015 (GMT -0400)
Portage Boro | | Change Station
CLOSE
Current Station
Stazione meteo personale
Location: Portage, PA
Altitudine: 1690 ft
Stazioni meteo nelle vicinanze

Alt. 1690 ft 40.39 °N, 78.67 °W | Updated 22 seconds ago

Sereno
Sereno
56.8 °F
Sembra 56.8 °F
N
0.0
Vento Variabile Vento da OSO
Gusts 0.0 mph

Oggi
Massima -- | Minima -- °F
--% Possibilità di precip.
Ieri
Massima -- | Minima -- °F
Precip. -- in
6:37 AM 7:53 PM
Gobba a ponente, 99% visible
Pressione 30.22 in
Visibilità 10.0 miglia
Nuvole Sereno
Punto di rugiada 57 °F
Umidità 99%
Piovosità 0.00 in
Spessore del manto nevoso Non disponibile.
Raggi UV 0 fuori da 12
Polline 9.60 fuori da 12
Qualità dell'aria Non disponibile.
Flu Activity Non disponibile.
METAR KJST 290254Z AUTO 10004KT 10SM CLR 17/11 A3024 RMK AO2 SLP231 T01720111 51011
Pressione 30.22 in
Visibilità 10.0 miglia
Nuvole Sereno
Punto di rugiada 57 °F
Umidità 99%
Piovosità 0.00 in
Spessore del manto nevoso Non disponibile.
Raggi UV 0 fuori da 12
Polline 9.60 fuori da 12
Qualità dell'aria Non disponibile.
Flu Activity Non disponibile.
METAR KJST 290254Z AUTO 10004KT 10SM CLR 17/11 A3024 RMK AO2 SLP231 T01720111 51011

10-Day Weather Forecast

×

Almanac

Astronomia

Aug. 28, 2015 Alba Tramonto
Ora attuale
Crepuscolo civile
Crepuscolo nautico
Crepuscolo astronomico
Luna
Estensione della luce visibile
Lunghezza del giorno
Tomorrow will be .
, % of the Moon is Illuminated

Gli estremi di oggi

State Highs State Lows

Community

WunderPhotos

Upload Photos

1,850,593 foto caricate!

WunderBlogs® & News

Nearby

Qualità dell'aria

  Qualità dell'aria Indice AQ Inquinante
Not available.

Profondità neve

Stazione Profondità Altitudine

Attività sismica

Città  Distanza Mag. Data & Ora
Minimo Magnitudo Mostrato è 2.5.

Temperature delle acque costiere

Località Temperatura

Stations

Stazioni meteo nelle vicinanze

Ubicazione della stazione Temp. Raffreddamento del vento Punto di rugiada Umidità Vento Precip. Alt. Aggiornato Tipo